createdAt,value
2022-08-26T00:02:07.570Z,100634.96
2022-08-26T00:04:37.758Z,100633.84
2022-08-26T00:07:06.700Z,100632.41
2022-08-26T00:09:39.013Z,100632.77
2022-08-26T00:12:13.191Z,100627.80
2022-08-26T00:14:44.628Z,100633.59
2022-08-26T00:17:14.390Z,100632.89
2022-08-26T00:19:45.033Z,100630.38
2022-08-26T00:22:14.630Z,100631.47
2022-08-26T00:24:50.479Z,100629.36
2022-08-26T00:27:19.623Z,100628.96
2022-08-26T00:29:49.298Z,100628.98
2022-08-26T00:32:18.355Z,100627.20
2022-08-26T00:34:48.310Z,100629.91
2022-08-26T00:37:16.660Z,100630.45
2022-08-26T00:39:45.733Z,100626.17
2022-08-26T00:42:14.483Z,100627.85
2022-08-26T00:44:44.679Z,100629.54
2022-08-26T00:47:19.718Z,100630.38
2022-08-26T00:49:48.923Z,100628.83
2022-08-26T00:52:22.930Z,100630.86
2022-08-26T00:54:57.756Z,100631.86
2022-08-26T00:57:26.745Z,100633.36
2022-08-26T00:59:58.162Z,100637.33
2022-08-26T01:02:26.930Z,100637.27
2022-08-26T01:05:00.582Z,100638.52
2022-08-26T01:07:31.239Z,100638.59
2022-08-26T01:10:00.524Z,100637.17
2022-08-26T01:12:32.317Z,100641.80
2022-08-26T01:15:01.753Z,100643.16
2022-08-26T01:17:30.600Z,100639.45
2022-08-26T01:20:06.793Z,100637.78
2022-08-26T01:22:44.994Z,100636.34
2022-08-26T01:25:14.502Z,100634.24
2022-08-26T01:27:44.109Z,100633.95
2022-08-26T01:30:15.042Z,100634.16
2022-08-26T01:32:43.827Z,100637.77
2022-08-26T01:35:12.319Z,100636.51
2022-08-26T01:37:41.885Z,100633.06
2022-08-26T01:40:17.247Z,100634.86
2022-08-26T01:42:47.431Z,100639.47
2022-08-26T01:45:19.803Z,100634.27
2022-08-26T01:47:56.874Z,100632.29
2022-08-26T01:50:30.490Z,100635.23
2022-08-26T01:53:02.651Z,100633.90
2022-08-26T01:55:32.926Z,100632.66
2022-08-26T01:58:05.305Z,100635.61
2022-08-26T02:00:34.706Z,100631.42
2022-08-26T02:03:18.213Z,100632.55
2022-08-26T02:05:51.394Z,100637.36
2022-08-26T02:08:24.703Z,100633.52
2022-08-26T02:10:55.399Z,100634.70
2022-08-26T02:13:27.144Z,100637.95
2022-08-26T02:15:57.357Z,100636.27
2022-08-26T02:18:27.275Z,100638.13
2022-08-26T02:20:57.039Z,100637.17
2022-08-26T02:23:25.900Z,100636.27
2022-08-26T02:26:04.227Z,100632.92
2022-08-26T02:28:36.429Z,100634.34
2022-08-26T02:31:05.496Z,100636.34
2022-08-26T02:33:36.498Z,100632.93
2022-08-26T02:36:06.591Z,100630.36
2022-08-26T02:38:36.429Z,100629.18
2022-08-26T02:41:05.728Z,100629.48
2022-08-26T02:43:36.838Z,100629.39
2022-08-26T02:46:07.000Z,100629.88
2022-08-26T02:48:35.622Z,100629.92
2022-08-26T02:51:05.428Z,100631.67
2022-08-26T02:53:34.037Z,100629.91
2022-08-26T02:56:06.504Z,100627.98
2022-08-26T02:58:36.278Z,100628.13
2022-08-26T03:01:05.201Z,100627.62
2022-08-26T03:03:34.174Z,100629.12
2022-08-26T03:06:02.774Z,100628.27
2022-08-26T03:08:31.068Z,100634.79
2022-08-26T03:10:59.580Z,100629.32
2022-08-26T03:13:30.830Z,100628.70
2022-08-26T03:16:01.681Z,100628.61
2022-08-26T03:18:30.374Z,100626.56
2022-08-26T03:21:06.824Z,100622.88
2022-08-26T03:23:35.763Z,100622.41
2022-08-26T03:26:04.318Z,100627.63
2022-08-26T03:28:33.066Z,100622.58
2022-08-26T03:31:01.508Z,100626.06
2022-08-26T03:33:30.962Z,100629.04
2022-08-26T03:36:03.604Z,100628.84
2022-08-26T03:38:32.978Z,100627.63
2022-08-26T03:41:01.574Z,100624.89
2022-08-26T03:43:31.224Z,100622.57
2022-08-26T03:46:04.257Z,100622.91
2022-08-26T03:48:33.753Z,100623.58
2022-08-26T03:51:04.721Z,100623.41
2022-08-26T03:53:33.071Z,100619.88
2022-08-26T03:56:05.684Z,100618.86
2022-08-26T03:58:34.288Z,100619.58
2022-08-26T04:01:03.253Z,100615.89
2022-08-26T04:03:50.287Z,100616.39
2022-08-26T04:06:19.070Z,100615.77
2022-08-26T04:08:47.998Z,100613.18
2022-08-26T04:11:21.710Z,100615.14
2022-08-26T04:13:50.742Z,100616.13
2022-08-26T04:16:19.154Z,100615.78
2022-08-26T04:18:47.755Z,100615.21
2022-08-26T04:21:16.400Z,100614.80
2022-08-26T04:23:47.679Z,100618.29
2022-08-26T04:26:17.845Z,100614.19
2022-08-26T04:28:46.317Z,100617.66
2022-08-26T04:31:17.775Z,100616.79
2022-08-26T04:33:49.931Z,100623.29
2022-08-26T04:36:19.810Z,100625.76
2022-08-26T04:38:50.279Z,100625.09
2022-08-26T04:41:20.522Z,100624.84
2022-08-26T04:43:49.803Z,100623.67
2022-08-26T04:46:22.144Z,100620.24
2022-08-26T04:48:51.784Z,100618.08
2022-08-26T04:51:27.113Z,100619.21
2022-08-26T04:53:57.542Z,100621.46
2022-08-26T04:56:26.825Z,100622.58
2022-08-26T04:58:55.535Z,100621.89
2022-08-26T05:01:24.198Z,100624.41
2022-08-26T05:03:52.801Z,100623.38
2022-08-26T05:06:21.155Z,100620.46
2022-08-26T05:08:50.931Z,100617.50
2022-08-26T05:11:21.426Z,100619.48
2022-08-26T05:13:51.178Z,100617.38
2022-08-26T05:16:19.785Z,100620.76
2022-08-26T05:18:48.812Z,100618.02
2022-08-26T05:21:19.662Z,100619.79
2022-08-26T05:23:50.140Z,100623.54
2022-08-26T05:26:23.195Z,100624.83
2022-08-26T05:28:54.788Z,100626.29
2022-08-26T05:31:26.569Z,100624.35
2022-08-26T05:33:57.109Z,100625.52
2022-08-26T05:36:28.249Z,100627.75
2022-08-26T05:38:57.760Z,100627.67
2022-08-26T05:41:36.195Z,100633.64
2022-08-26T05:44:07.891Z,100634.91
2022-08-26T05:46:38.803Z,100638.59
2022-08-26T05:49:12.214Z,100643.01
2022-08-26T05:51:41.752Z,100637.58
2022-08-26T05:54:10.729Z,100636.69
2022-08-26T05:56:39.809Z,100638.91
2022-08-26T05:59:14.336Z,100635.13
2022-08-26T06:01:43.389Z,100634.61
2022-08-26T06:04:12.435Z,100628.98
2022-08-26T06:06:41.162Z,100629.11
2022-08-26T06:09:10.965Z,100627.98
2022-08-26T06:11:40.254Z,100626.84
2022-08-26T06:14:09.367Z,100628.91
2022-08-26T06:16:40.734Z,100626.96
2022-08-26T06:19:11.594Z,100629.95
2022-08-26T06:21:42.817Z,100628.67
2022-08-26T06:24:47.459Z,100627.02
2022-08-26T06:27:16.522Z,100631.14
2022-08-26T06:29:46.741Z,100631.11
2022-08-26T06:32:15.227Z,100635.30
2022-08-26T06:34:44.219Z,100633.52
2022-08-26T06:37:12.549Z,100632.92
2022-08-26T06:39:41.387Z,100633.44
2022-08-26T06:42:10.945Z,100632.30
2022-08-26T06:44:41.200Z,100636.11
2022-08-26T06:47:10.109Z,100640.02
2022-08-26T06:49:38.552Z,100641.73
2022-08-26T06:52:08.245Z,100641.01
2022-08-26T06:54:38.890Z,100642.27
2022-08-26T06:57:08.291Z,100642.38
2022-08-26T06:59:45.427Z,100643.70
2022-08-26T07:02:15.210Z,100650.30
2022-08-26T07:04:47.747Z,100645.25
2022-08-26T07:07:16.959Z,100642.82
2022-08-26T07:09:48.013Z,100643.48
2022-08-26T07:12:21.178Z,100639.52
2022-08-26T07:14:53.529Z,100639.69
2022-08-26T07:17:28.176Z,100643.83
2022-08-26T07:20:00.119Z,100644.36
2022-08-26T07:22:29.117Z,100638.46
2022-08-26T07:24:58.972Z,100639.05
2022-08-26T07:27:32.353Z,100633.95
2022-08-26T07:30:03.171Z,100627.54
2022-08-26T07:32:31.969Z,100629.92
2022-08-26T07:35:00.738Z,100632.48
2022-08-26T07:37:29.108Z,100631.27
2022-08-26T07:40:06.891Z,100624.70
2022-08-26T07:42:35.556Z,100629.30
2022-08-26T07:45:05.535Z,100625.98
2022-08-26T07:47:33.870Z,100625.59
2022-08-26T07:50:08.753Z,100626.89
2022-08-26T07:52:43.252Z,100626.15
2022-08-26T07:55:13.956Z,100620.77
2022-08-26T07:57:43.513Z,100616.70
2022-08-26T08:00:15.469Z,100615.36
2022-08-26T08:02:44.833Z,100616.41
2022-08-26T08:05:18.209Z,100616.86
2022-08-26T08:07:48.093Z,100614.86
2022-08-26T08:10:25.298Z,100614.17
2022-08-26T08:13:00.719Z,100617.07
2022-08-26T08:15:37.356Z,100614.59
2022-08-26T08:18:15.216Z,100616.35
2022-08-26T08:20:54.638Z,100617.48
2022-08-26T08:23:34.993Z,100615.56
2022-08-26T08:26:09.704Z,100615.03
2022-08-26T08:28:39.253Z,100611.17
2022-08-26T08:31:09.652Z,100605.24
2022-08-26T08:33:39.072Z,100605.66
2022-08-26T08:36:09.309Z,100599.41
2022-08-26T08:38:38.097Z,100600.38
2022-08-26T08:41:07.304Z,100601.29
2022-08-26T08:43:41.563Z,100601.47
2022-08-26T08:46:13.675Z,100599.20
2022-08-26T08:48:49.006Z,100593.29
2022-08-26T08:51:24.606Z,100594.63
2022-08-26T08:53:54.750Z,100589.78
2022-08-26T08:56:27.248Z,100589.33
2022-08-26T08:59:04.040Z,100588.30
2022-08-26T09:01:41.590Z,100586.52
2022-08-26T09:04:23.343Z,100583.39
2022-08-26T09:06:55.658Z,100581.89
2022-08-26T09:09:34.630Z,100578.37
2022-08-26T09:12:08.612Z,100579.58
2022-08-26T09:14:38.007Z,100580.71
2022-08-26T09:17:13.965Z,100580.83
2022-08-26T09:19:47.217Z,100579.63
2022-08-26T09:22:31.035Z,100578.55
2022-08-26T09:24:59.709Z,100576.25
2022-08-26T09:27:39.675Z,100573.90
2022-08-26T09:30:11.516Z,100572.82
2022-08-26T09:32:41.433Z,100568.79
2022-08-26T09:35:25.546Z,100571.31
2022-08-26T09:37:54.637Z,100567.41
2022-08-26T09:40:28.383Z,100564.40
2022-08-26T09:43:13.529Z,100562.34
2022-08-26T09:45:50.764Z,100560.48
2022-08-26T09:48:36.421Z,100557.54
2022-08-26T09:51:28.192Z,100556.91
2022-08-26T09:54:00.509Z,100553.61
2022-08-26T09:56:32.081Z,100549.14
2022-08-26T09:59:04.227Z,100544.14
2022-08-26T10:01:37.386Z,100545.77
2022-08-26T10:04:09.936Z,100543.30
2022-08-26T10:06:43.759Z,100543.13
2022-08-26T10:09:15.421Z,100543.30
2022-08-26T10:11:47.759Z,100543.88
2022-08-26T10:14:21.384Z,100543.14
2022-08-26T10:16:54.388Z,100538.91
2022-08-26T10:19:55.876Z,100536.68
2022-08-26T10:22:25.177Z,100533.35
2022-08-26T10:24:58.231Z,100533.95
2022-08-26T10:27:35.413Z,100536.83
2022-08-26T10:30:07.351Z,100541.61
2022-08-26T10:32:41.380Z,100537.45
2022-08-26T10:35:13.542Z,100537.57
2022-08-26T10:37:46.071Z,100536.83
2022-08-26T10:40:18.645Z,100533.36
2022-08-26T10:42:52.089Z,100530.61
2022-08-26T10:45:26.381Z,100530.77
2022-08-26T10:48:00.749Z,100531.27
2022-08-26T10:50:33.138Z,100529.32
2022-08-26T10:53:07.606Z,100527.17
2022-08-26T10:55:41.342Z,100522.11
2022-08-26T10:58:26.278Z,100521.67
2022-08-26T11:01:22.804Z,100514.21
2022-08-26T11:03:59.653Z,100510.06
2022-08-26T11:06:31.551Z,100512.24
2022-08-26T11:09:02.760Z,100503.54
2022-08-26T11:11:48.958Z,100502.02
2022-08-26T11:14:58.787Z,100498.94
2022-08-26T11:17:57.562Z,100496.30
2022-08-26T11:20:36.710Z,100495.10
2022-08-26T11:23:50.218Z,100493.34
2022-08-26T11:26:36.373Z,100490.09
2022-08-26T11:29:13.516Z,100487.23
2022-08-26T11:32:07.339Z,100482.36
2022-08-26T11:34:58.800Z,100481.40
2022-08-26T11:37:35.887Z,100484.48
2022-08-26T11:40:12.853Z,100481.85
2022-08-26T11:42:44.358Z,100485.35
2022-08-26T11:45:19.620Z,100481.42
2022-08-26T11:47:49.253Z,100477.31
2022-08-26T11:50:23.505Z,100477.36
2022-08-26T11:53:01.329Z,100475.05
2022-08-26T11:55:32.325Z,100468.10
2022-08-26T11:58:04.819Z,100466.84
2022-08-26T12:00:38.164Z,100471.23
2022-08-26T12:03:20.809Z,100470.82
2022-08-26T12:05:53.234Z,100466.17
2022-08-26T12:08:25.941Z,100462.59
2022-08-26T12:11:06.585Z,100458.05
2022-08-26T12:13:38.392Z,100457.02
2022-08-26T12:16:08.272Z,100451.48
2022-08-26T12:18:39.598Z,100447.62
2022-08-26T12:21:15.865Z,100447.43
2022-08-26T12:23:48.237Z,100441.90
2022-08-26T12:26:27.203Z,100438.77
2022-08-26T12:29:02.212Z,100436.86
2022-08-26T12:31:49.907Z,100438.07
2022-08-26T12:34:19.623Z,100436.60
2022-08-26T12:36:51.163Z,100436.27
2022-08-26T12:39:28.608Z,100432.73
2022-08-26T12:41:58.624Z,100428.02
2022-08-26T12:44:38.344Z,100419.64
2022-08-26T12:47:10.726Z,100413.77
2022-08-26T12:49:43.987Z,100411.50
2022-08-26T12:52:29.549Z,100405.34
2022-08-26T12:55:00.143Z,100402.77
2022-08-26T12:57:31.318Z,100400.95
2022-08-26T13:00:30.346Z,100401.87
2022-08-26T13:03:01.290Z,100393.88
2022-08-26T13:05:32.940Z,100392.73
2022-08-26T13:08:13.885Z,100390.27
2022-08-26T13:10:45.750Z,100382.70
2022-08-26T13:13:14.798Z,100387.04
2022-08-26T13:15:45.724Z,100377.13
2022-08-26T13:18:15.092Z,100378.66
2022-08-26T13:20:46.383Z,100376.92
2022-08-26T13:23:18.898Z,100377.10
2022-08-26T13:25:49.862Z,100377.14
2022-08-26T13:28:22.396Z,100377.96
2022-08-26T13:30:50.443Z,100374.04
2022-08-26T13:33:24.996Z,100367.66
2022-08-26T13:35:54.485Z,100367.25
2022-08-26T13:38:33.752Z,100368.80
2022-08-26T13:41:03.675Z,100368.00
2022-08-26T13:43:32.621Z,100368.40
2022-08-26T13:46:01.640Z,100368.41
2022-08-26T13:48:30.910Z,100363.92
2022-08-26T13:50:59.998Z,100360.49
2022-08-26T13:53:29.956Z,100362.04
2022-08-26T13:55:59.498Z,100358.71
2022-08-26T13:58:28.928Z,100351.87
2022-08-26T14:00:58.487Z,100349.57
2022-08-26T14:03:27.693Z,100352.92
2022-08-26T14:05:56.565Z,100348.70
2022-08-26T14:08:26.047Z,100348.26
2022-08-26T14:10:54.521Z,100344.82
2022-08-26T14:13:23.225Z,100342.05
2022-08-26T14:15:53.173Z,100342.79
2022-08-26T14:18:24.888Z,100341.29
2022-08-26T14:20:55.817Z,100341.79
2022-08-26T14:23:25.178Z,100339.25
2022-08-26T14:25:54.280Z,100340.70
2022-08-26T14:28:22.699Z,100339.80
2022-08-26T14:30:53.896Z,100344.70
2022-08-26T14:33:26.250Z,100344.83
2022-08-26T14:36:15.641Z,100339.77
2022-08-26T14:38:44.397Z,100335.63
2022-08-26T14:41:13.438Z,100331.57
2022-08-26T14:43:47.025Z,100329.08
2022-08-26T14:46:16.054Z,100325.16
2022-08-26T14:48:45.072Z,100325.59
2022-08-26T14:51:13.617Z,100317.48
2022-08-26T14:54:06.814Z,100319.77
2022-08-26T14:56:40.334Z,100320.98
2022-08-26T14:59:08.930Z,100320.98
2022-08-26T15:01:43.797Z,100323.52
2022-08-26T15:04:13.005Z,100316.62
2022-08-26T15:06:41.471Z,100321.55
2022-08-26T15:09:09.991Z,100318.83
2022-08-26T15:11:38.734Z,100317.88
2022-08-26T15:14:07.885Z,100318.45
2022-08-26T15:16:48.483Z,100321.02
2022-08-26T15:19:20.540Z,100315.27
2022-08-26T15:21:50.614Z,100316.52
2022-08-26T15:24:24.355Z,100313.73
2022-08-26T15:26:53.603Z,100311.43
2022-08-26T15:29:28.871Z,100309.31
2022-08-26T15:31:59.338Z,100309.27
2022-08-26T15:34:32.463Z,100303.84
2022-08-26T15:37:01.585Z,100305.46
2022-08-26T15:39:29.963Z,100302.25
2022-08-26T15:41:59.223Z,100295.13
2022-08-26T15:44:29.821Z,100296.30
2022-08-26T15:46:59.981Z,100292.63
2022-08-26T15:49:29.550Z,100294.00
2022-08-26T15:52:00.809Z,100296.14
2022-08-26T15:54:29.712Z,100291.55
2022-08-26T15:57:01.773Z,100296.23
2022-08-26T15:59:31.098Z,100296.48
2022-08-26T16:02:00.093Z,100292.47
2022-08-26T16:04:29.560Z,100295.52
2022-08-26T16:06:58.329Z,100294.05
2022-08-26T16:09:27.742Z,100293.83
2022-08-26T16:12:00.536Z,100291.92
2022-08-26T16:14:29.855Z,100290.67
2022-08-26T16:16:59.696Z,100293.50
2022-08-26T16:19:28.413Z,100294.25
2022-08-26T16:21:56.816Z,100293.97
2022-08-26T16:24:30.499Z,100294.05
2022-08-26T16:26:59.975Z,100294.38
2022-08-26T16:29:28.533Z,100291.10
2022-08-26T16:31:57.047Z,100285.36
2022-08-26T16:34:25.770Z,100287.01
2022-08-26T16:36:54.621Z,100283.29
2022-08-26T16:39:23.846Z,100285.78
2022-08-26T16:41:53.905Z,100280.44
2022-08-26T16:44:22.872Z,100282.35
2022-08-26T16:46:52.981Z,100283.81
2022-08-26T16:49:27.748Z,100283.59
2022-08-26T16:51:56.267Z,100283.59
2022-08-26T16:54:25.839Z,100283.69
2022-08-26T16:56:55.237Z,100284.63
2022-08-26T16:59:23.927Z,100285.45
2022-08-26T17:01:53.162Z,100285.84
2022-08-26T17:04:22.831Z,100284.66
2022-08-26T17:06:53.348Z,100283.62
2022-08-26T17:09:23.306Z,100285.69
2022-08-26T17:11:51.964Z,100288.66
2022-08-26T17:14:21.085Z,100286.46
2022-08-26T17:16:53.035Z,100287.83
2022-08-26T17:19:24.769Z,100286.52
2022-08-26T17:21:53.697Z,100290.79
2022-08-26T17:24:22.046Z,100291.70
2022-08-26T17:26:50.764Z,100292.11
2022-08-26T17:29:25.178Z,100289.27
2022-08-26T17:31:56.209Z,100291.46
2022-08-26T17:34:25.468Z,100288.34
2022-08-26T17:36:54.477Z,100283.80
2022-08-26T17:39:24.942Z,100287.23
2022-08-26T17:41:53.430Z,100295.88
2022-08-26T17:44:21.820Z,100298.15
2022-08-26T17:46:50.275Z,100295.42
2022-08-26T17:49:18.780Z,100298.79
2022-08-26T17:51:47.200Z,100296.44
2022-08-26T17:54:16.373Z,100295.80
2022-08-26T17:56:45.178Z,100294.94
2022-08-26T17:59:14.012Z,100295.00
2022-08-26T18:01:42.736Z,100296.99
2022-08-26T18:04:14.189Z,100292.73
2022-08-26T18:06:43.108Z,100297.33
2022-08-26T18:09:13.890Z,100298.20
2022-08-26T18:11:42.675Z,100297.30
2022-08-26T18:14:11.075Z,100298.00
2022-08-26T18:16:41.290Z,100298.60
2022-08-26T18:19:09.725Z,100298.14
2022-08-26T18:21:39.950Z,100300.09
2022-08-26T18:24:13.339Z,100304.35
2022-08-26T18:26:48.444Z,100301.02
2022-08-26T18:29:18.864Z,100301.09
2022-08-26T18:31:50.170Z,100302.66
2022-08-26T18:34:18.850Z,100302.48
2022-08-26T18:36:51.055Z,100298.38
2022-08-26T18:39:23.455Z,100296.95
2022-08-26T18:41:52.887Z,100299.48
2022-08-26T18:44:24.266Z,100302.59
2022-08-26T18:46:53.192Z,100307.76
2022-08-26T18:49:22.133Z,100309.86
2022-08-26T18:51:51.836Z,100306.71
2022-08-26T18:56:54.645Z,100309.38
2022-08-26T18:59:28.385Z,100311.16
2022-08-26T19:01:59.768Z,100310.63
2022-08-26T19:04:28.558Z,100310.75
2022-08-26T19:06:56.801Z,100313.30
2022-08-26T19:09:26.045Z,100309.79
2022-08-26T19:14:25.265Z,100312.95
2022-08-26T19:16:54.671Z,100314.29
2022-08-26T19:19:23.671Z,100309.71
2022-08-26T19:21:54.733Z,100313.55
2022-08-26T19:24:23.398Z,100310.85
2022-08-26T19:27:00.746Z,100314.86
2022-08-26T19:29:31.513Z,100314.96
2022-08-26T19:32:01.396Z,100311.27
2022-08-26T19:34:30.926Z,100311.70
2022-08-26T19:36:59.385Z,100312.24
2022-08-26T19:39:27.937Z,100311.00
2022-08-26T19:41:56.366Z,100311.34
2022-08-26T19:44:44.149Z,100311.67
2022-08-26T19:47:14.066Z,100314.70
2022-08-26T19:49:42.469Z,100311.94
2022-08-26T19:52:11.757Z,100314.17
2022-08-26T19:54:41.141Z,100316.98
2022-08-26T19:57:09.470Z,100313.05
2022-08-26T19:59:37.940Z,100315.54
2022-08-26T20:02:10.648Z,100319.65
2022-08-26T20:04:41.393Z,100321.40
2022-08-26T20:07:13.087Z,100321.61
2022-08-26T20:09:47.705Z,100321.39
2022-08-26T20:12:18.397Z,100319.73
2022-08-26T20:14:47.376Z,100319.50
2022-08-26T20:17:17.039Z,100320.51
2022-08-26T20:20:26.694Z,100317.06
2022-08-26T20:23:05.013Z,100318.73
2022-08-26T20:25:34.218Z,100321.31
2022-08-26T20:28:04.971Z,100323.56
2022-08-26T20:30:36.026Z,100323.33
2022-08-26T20:33:06.699Z,100320.97
2022-08-26T20:35:35.360Z,100321.52
2022-08-26T20:38:05.153Z,100321.70
2022-08-26T20:40:35.001Z,100322.84
2022-08-26T20:43:05.866Z,100325.57
2022-08-26T20:45:35.759Z,100324.54
2022-08-26T20:48:05.216Z,100330.63
2022-08-26T20:50:34.211Z,100330.91
2022-08-26T20:53:06.864Z,100329.96
2022-08-26T20:55:35.794Z,100329.85
2022-08-26T20:58:04.687Z,100328.79
2022-08-26T21:00:32.965Z,100326.99
2022-08-26T21:03:01.891Z,100329.07
2022-08-26T21:05:30.597Z,100330.73
2022-08-26T21:07:59.701Z,100328.30
2022-08-26T21:10:30.125Z,100331.17
2022-08-26T21:12:59.419Z,100334.29
2022-08-26T21:15:27.801Z,100334.67
2022-08-26T21:17:56.806Z,100333.98
2022-08-26T21:20:25.488Z,100339.23
2022-08-26T21:22:56.204Z,100335.84
2022-08-26T21:25:25.574Z,100338.45
2022-08-26T21:27:55.172Z,100333.89
2022-08-26T21:30:24.112Z,100335.17
2022-08-26T21:32:53.735Z,100338.38
2022-08-26T21:35:22.594Z,100340.55
2022-08-26T21:37:51.494Z,100339.13
2022-08-26T21:40:21.599Z,100330.42
2022-08-26T21:42:50.262Z,100333.35
2022-08-26T21:45:21.740Z,100329.70
2022-08-26T21:47:51.215Z,100331.31
2022-08-26T21:50:19.848Z,100331.17
2022-08-26T21:52:48.308Z,100332.67
2022-08-26T21:55:17.688Z,100332.42
2022-08-26T21:57:45.911Z,100332.77
2022-08-26T22:00:18.720Z,100329.66
2022-08-26T22:02:49.716Z,100332.80
2022-08-26T22:05:18.683Z,100335.84
2022-08-26T22:07:47.118Z,100332.38
2022-08-26T22:10:15.463Z,100331.19
2022-08-26T22:12:44.170Z,100328.94
2022-08-26T22:15:12.999Z,100331.63
2022-08-26T22:17:41.668Z,100328.89
2022-08-26T22:20:16.735Z,100332.79
2022-08-26T22:22:45.736Z,100333.24
2022-08-26T22:25:15.071Z,100333.70
2022-08-26T22:27:48.638Z,100330.57
2022-08-26T22:30:19.301Z,100334.36
2022-08-26T22:32:50.216Z,100332.89
2022-08-26T22:35:29.025Z,100333.29
2022-08-26T22:37:58.903Z,100327.86
2022-08-26T22:40:28.527Z,100330.70
2022-08-26T22:42:59.975Z,100332.30
2022-08-26T22:45:30.837Z,100333.80
2022-08-26T22:47:59.798Z,100334.17
2022-08-26T22:50:32.407Z,100331.23
2022-08-26T22:53:01.547Z,100331.16
2022-08-26T22:55:30.024Z,100329.10
2022-08-26T22:57:59.013Z,100329.70
2022-08-26T23:00:32.010Z,100328.06
2022-08-26T23:03:01.628Z,100324.92
2022-08-26T23:05:32.281Z,100322.80
2022-08-26T23:08:01.548Z,100318.62
2022-08-26T23:10:30.448Z,100315.23
2022-08-26T23:13:01.320Z,100320.10
2022-08-26T23:15:30.991Z,100317.40
2022-08-26T23:18:00.485Z,100318.38
2022-08-26T23:20:29.831Z,100317.07
2022-08-26T23:22:59.611Z,100318.45
2022-08-26T23:25:29.363Z,100318.92
2022-08-26T23:27:59.228Z,100319.04
2022-08-26T23:30:30.919Z,100318.38
2022-08-26T23:32:59.295Z,100316.45
2022-08-26T23:35:28.414Z,100321.55
2022-08-26T23:37:58.918Z,100320.13
2022-08-26T23:40:29.687Z,100320.12
2022-08-26T23:43:00.038Z,100314.30
2022-08-26T23:45:28.760Z,100311.62
2022-08-26T23:47:57.100Z,100309.41
2022-08-26T23:50:47.955Z,100304.41
2022-08-26T23:53:19.923Z,100306.18
2022-08-26T23:55:50.740Z,100299.37
2022-08-26T23:58:20.835Z,100295.80
